Strona główna
METAR-TAF:

METAR-TAF

Lotnisko :

Monbetsu, Japonia

Szerokość geograficzna: 44-15N, Długość geograficzna: 143-32E, wysokość: 6 m

Aktualna obserwacja pogody

Raport powstał 14 godziny i 41 minut temu, godzina 07:00 UTC
Wiatr 8 kt od zachodnio-północny zachód
Temperatura -6°C
Wilgotność 68%
Ciśnienie 1014 hPa
Widzialność 10 km lub więcej
Mało chmury na wysokości 500 ft
Rozproszone chmury na wysokości 2000 ft
Przerywane chmury na wysokości 3000 ft
słaby przelotny opad śniegu

METAR: RJEB 090700Z 30008KT 9999 -SHSN FEW005 SCT020 BKN030 M06/M11 Q1014

czas: 06:41 (21:41 UTC)


TAF: brakujący

Obserwacja i prognoza pogody dla ponad 4000 lotnisk (raport METAR i TAF).

Dostępne stacje oznaczono żółtymi i czerwonymi punktami na mapie.

Najedź kursorem aby zobaczyć nazwę stacji.

Kliknij aby zobaczyć obserwacje i prognozy pogody.

Aby zmienić mapę: kliknij na zielony przycisk z czarnym krzyżykiem, aby powiększyć; na zielony przycisk z myślnikiem, aby pomniejszyć; na zielone strzałki, aby przejść do map sąsiednich.


METAR-TAF: